Terminal Aerodrome Forecast
Issued by NWS Cleveland, OH

Home | Current Version | Previous Version | Graphics & Text | Print | Product List | Glossary On
Versions: 1 2 3 4 5 6 7 8 9 10 11 12 13 14 15 16 17
000
FTUS41 KCLE 310500
TAFYNG
TAF
KYNG 310540Z 3106/0106 23008KT 6SM -SHRA SCT040 OVC100
     FM311000 22010KT P6SM VCSH SCT012 OVC030
     FM311200 22010KT P6SM VCSH SCT008 OVC012
      TEMPO 3112/3116 OVC008
     FM312200 23010KT P6SM OVC020=

USA.gov is the U.S. government's official web portal to all federal, state and local government web resources and services.